sensor_id;sensor_type;location;lat;lon;timestamp;temperature;humidity
16871;DHT22;8552;48.120;-1.456;2022-10-16T00:01:46;13.20;99.90
16871;DHT22;8552;48.120;-1.456;2022-10-16T00:04:12;13.20;99.90
16871;DHT22;8552;48.120;-1.456;2022-10-16T00:06:38;13.20;99.90
16871;DHT22;8552;48.120;-1.456;2022-10-16T00:09:05;13.30;99.90
16871;DHT22;8552;48.120;-1.456;2022-10-16T00:11:33;13.30;99.90
16871;DHT22;8552;48.120;-1.456;2022-10-16T00:14:04;13.40;99.90
16871;DHT22;8552;48.120;-1.456;2022-10-16T00:16:30;13.40;99.90
16871;DHT22;8552;48.120;-1.456;2022-10-16T00:18:57;13.40;99.90
16871;DHT22;8552;48.120;-1.456;2022-10-16T00:21:26;13.50;99.90
16871;DHT22;8552;48.120;-1.456;2022-10-16T00:23:57;13.50;99.90
16871;DHT22;8552;48.120;-1.456;2022-10-16T00:26:23;13.50;99.90
16871;DHT22;8552;48.120;-1.456;2022-10-16T00:28:50;13.50;99.90
16871;DHT22;8552;48.120;-1.456;2022-10-16T00:31:18;13.50;99.90
16871;DHT22;8552;48.120;-1.456;2022-10-16T00:33:44;13.50;99.90
16871;DHT22;8552;48.120;-1.456;2022-10-16T00:36:12;13.60;99.90
16871;DHT22;8552;48.120;-1.456;2022-10-16T00:38:38;13.60;99.90
16871;DHT22;8552;48.120;-1.456;2022-10-16T00:41:05;13.60;99.90
16871;DHT22;8552;48.120;-1.456;2022-10-16T00:43:46;13.60;99.90
16871;DHT22;8552;48.120;-1.456;2022-10-16T00:46:31;13.60;99.90
16871;DHT22;8552;48.120;-1.456;2022-10-16T00:49:09;13.60;99.90
16871;DHT22;8552;48.120;-1.456;2022-10-16T00:51:39;13.60;99.90
16871;DHT22;8552;48.120;-1.456;2022-10-16T00:54:12;13.60;99.90
16871;DHT22;8552;48.120;-1.456;2022-10-16T00:56:38;13.60;99.90
16871;DHT22;8552;48.120;-1.456;2022-10-16T00:59:14;13.60;99.90
16871;DHT22;8552;48.120;-1.456;2022-10-16T01:01:40;13.70;99.90
16871;DHT22;8552;48.120;-1.456;2022-10-16T01:04:06;13.70;99.90
16871;DHT22;8552;48.120;-1.456;2022-10-16T01:06:36;13.70;99.90
16871;DHT22;8552;48.120;-1.456;2022-10-16T01:09:16;13.70;99.90
16871;DHT22;8552;48.120;-1.456;2022-10-16T01:11:53;13.70;99.90
16871;DHT22;8552;48.120;-1.456;2022-10-16T01:14:32;13.70;99.90
16871;DHT22;8552;48.120;-1.456;2022-10-16T01:17:07;13.70;99.90
16871;DHT22;8552;48.120;-1.456;2022-10-16T01:22:38;13.70;99.90
16871;DHT22;8552;48.120;-1.456;2022-10-16T01:25:11;13.70;99.90
16871;DHT22;8552;48.120;-1.456;2022-10-16T01:27:40;13.70;99.90
16871;DHT22;8552;48.120;-1.456;2022-10-16T01:30:18;13.70;99.90
16871;DHT22;8552;48.120;-1.456;2022-10-16T01:32:52;13.70;99.90
16871;DHT22;8552;48.120;-1.456;2022-10-16T01:35:27;13.70;99.90
16871;DHT22;8552;48.120;-1.456;2022-10-16T01:37:59;13.70;99.90
16871;DHT22;8552;48.120;-1.456;2022-10-16T01:40:27;13.70;99.90
16871;DHT22;8552;48.120;-1.456;2022-10-16T01:43:02;13.70;99.90
16871;DHT22;8552;48.120;-1.456;2022-10-16T01:45:30;13.70;99.90
16871;DHT22;8552;48.120;-1.456;2022-10-16T01:47:57;13.60;99.90
16871;DHT22;8552;48.120;-1.456;2022-10-16T01:50:26;13.60;99.90
16871;DHT22;8552;48.120;-1.456;2022-10-16T01:52:54;13.60;99.90
16871;DHT22;8552;48.120;-1.456;2022-10-16T01:55:26;13.60;99.90
16871;DHT22;8552;48.120;-1.456;2022-10-16T01:57:55;13.60;99.90
16871;DHT22;8552;48.120;-1.456;2022-10-16T02:00:22;13.60;99.90
16871;DHT22;8552;48.120;-1.456;2022-10-16T02:02:50;13.60;99.90
16871;DHT22;8552;48.120;-1.456;2022-10-16T02:05:20;13.50;99.90
16871;DHT22;8552;48.120;-1.456;2022-10-16T02:07:47;13.50;99.90
16871;DHT22;8552;48.120;-1.456;2022-10-16T02:10:13;13.50;99.90
16871;DHT22;8552;48.120;-1.456;2022-10-16T02:12:42;13.40;99.90
16871;DHT22;8552;48.120;-1.456;2022-10-16T02:15:09;13.40;99.90
16871;DHT22;8552;48.120;-1.456;2022-10-16T02:17:35;13.40;99.90
16871;DHT22;8552;48.120;-1.456;2022-10-16T02:20:01;13.40;99.90
16871;DHT22;8552;48.120;-1.456;2022-10-16T02:22:32;13.40;99.90
16871;DHT22;8552;48.120;-1.456;2022-10-16T02:28:25;13.30;99.90
16871;DHT22;8552;48.120;-1.456;2022-10-16T02:31:01;13.30;99.90
16871;DHT22;8552;48.120;-1.456;2022-10-16T02:33:29;13.20;99.90
16871;DHT22;8552;48.120;-1.456;2022-10-16T02:35:57;13.20;99.90
16871;DHT22;8552;48.120;-1.456;2022-10-16T02:38:24;13.10;99.90
16871;DHT22;8552;48.120;-1.456;2022-10-16T02:40:50;13.20;99.90
16871;DHT22;8552;48.120;-1.456;2022-10-16T02:43:16;13.10;99.90
16871;DHT22;8552;48.120;-1.456;2022-10-16T02:45:42;13.10;99.90
16871;DHT22;8552;48.120;-1.456;2022-10-16T02:48:08;13.10;99.90
16871;DHT22;8552;48.120;-1.456;2022-10-16T02:50:33;13.10;99.90
16871;DHT22;8552;48.120;-1.456;2022-10-16T02:52:59;13.10;99.90
16871;DHT22;8552;48.120;-1.456;2022-10-16T02:55:25;13.20;99.90
16871;DHT22;8552;48.120;-1.456;2022-10-16T02:57:51;13.10;99.90
16871;DHT22;8552;48.120;-1.456;2022-10-16T03:00:17;13.20;99.90
16871;DHT22;8552;48.120;-1.456;2022-10-16T03:02:43;13.20;99.90
16871;DHT22;8552;48.120;-1.456;2022-10-16T03:05:09;13.20;99.90
16871;DHT22;8552;48.120;-1.456;2022-10-16T03:07:35;13.20;99.90
16871;DHT22;8552;48.120;-1.456;2022-10-16T03:10:01;13.20;99.90
16871;DHT22;8552;48.120;-1.456;2022-10-16T03:12:28;13.30;99.90
16871;DHT22;8552;48.120;-1.456;2022-10-16T03:14:54;13.30;99.90
16871;DHT22;8552;48.120;-1.456;2022-10-16T03:17:20;13.30;99.90
16871;DHT22;8552;48.120;-1.456;2022-10-16T03:19:46;13.30;99.90
16871;DHT22;8552;48.120;-1.456;2022-10-16T03:22:12;13.30;99.90
16871;DHT22;8552;48.120;-1.456;2022-10-16T03:24:37;13.30;99.90
16871;DHT22;8552;48.120;-1.456;2022-10-16T03:27:03;13.30;99.90
16871;DHT22;8552;48.120;-1.456;2022-10-16T03:29:29;13.30;99.90
16871;DHT22;8552;48.120;-1.456;2022-10-16T03:31:56;13.30;99.90
16871;DHT22;8552;48.120;-1.456;2022-10-16T03:34:21;13.30;99.90
16871;DHT22;8552;48.120;-1.456;2022-10-16T03:36:47;13.30;99.90
16871;DHT22;8552;48.120;-1.456;2022-10-16T03:39:13;13.30;99.90
16871;DHT22;8552;48.120;-1.456;2022-10-16T03:41:39;13.30;99.90
16871;DHT22;8552;48.120;-1.456;2022-10-16T03:44:04;13.30;99.90
16871;DHT22;8552;48.120;-1.456;2022-10-16T03:46:30;13.30;99.90
16871;DHT22;8552;48.120;-1.456;2022-10-16T03:48:56;13.30;99.90
16871;DHT22;8552;48.120;-1.456;2022-10-16T03:51:21;13.30;99.90
16871;DHT22;8552;48.120;-1.456;2022-10-16T03:53:47;13.30;99.90
16871;DHT22;8552;48.120;-1.456;2022-10-16T03:56:13;13.30;99.90
16871;DHT22;8552;48.120;-1.456;2022-10-16T03:58:38;13.30;99.90
16871;DHT22;8552;48.120;-1.456;2022-10-16T04:01:04;13.40;99.90
16871;DHT22;8552;48.120;-1.456;2022-10-16T04:03:30;13.40;99.90
16871;DHT22;8552;48.120;-1.456;2022-10-16T04:05:55;13.40;99.90
16871;DHT22;8552;48.120;-1.456;2022-10-16T04:08:21;13.40;99.90
16871;DHT22;8552;48.120;-1.456;2022-10-16T04:10:47;13.40;99.90
16871;DHT22;8552;48.120;-1.456;2022-10-16T04:13:14;13.40;99.90
16871;DHT22;8552;48.120;-1.456;2022-10-16T04:15:40;13.40;99.90
16871;DHT22;8552;48.120;-1.456;2022-10-16T04:18:06;13.40;99.90
16871;DHT22;8552;48.120;-1.456;2022-10-16T04:20:32;13.40;99.90
16871;DHT22;8552;48.120;-1.456;2022-10-16T04:22:57;13.50;99.90
16871;DHT22;8552;48.120;-1.456;2022-10-16T04:25:23;13.50;99.90
16871;DHT22;8552;48.120;-1.456;2022-10-16T04:27:49;13.50;99.90
16871;DHT22;8552;48.120;-1.456;2022-10-16T04:30:14;13.50;99.90
16871;DHT22;8552;48.120;-1.456;2022-10-16T04:32:40;13.50;99.90
16871;DHT22;8552;48.120;-1.456;2022-10-16T04:35:06;13.50;99.90
16871;DHT22;8552;48.120;-1.456;2022-10-16T04:37:32;13.60;99.90
16871;DHT22;8552;48.120;-1.456;2022-10-16T04:39:58;13.60;99.90
16871;DHT22;8552;48.120;-1.456;2022-10-16T04:42:24;13.60;99.90
16871;DHT22;8552;48.120;-1.456;2022-10-16T04:44:49;13.60;99.90
16871;DHT22;8552;48.120;-1.456;2022-10-16T04:47:15;13.60;99.90
16871;DHT22;8552;48.120;-1.456;2022-10-16T04:49:41;13.60;99.90
16871;DHT22;8552;48.120;-1.456;2022-10-16T04:52:06;13.60;99.90
16871;DHT22;8552;48.120;-1.456;2022-10-16T04:54:32;13.60;99.90
16871;DHT22;8552;48.120;-1.456;2022-10-16T04:56:57;13.60;99.90
16871;DHT22;8552;48.120;-1.456;2022-10-16T04:59:23;13.60;99.90
16871;DHT22;8552;48.120;-1.456;2022-10-16T05:01:49;13.60;99.90
16871;DHT22;8552;48.120;-1.456;2022-10-16T05:04:15;13.60;99.90
16871;DHT22;8552;48.120;-1.456;2022-10-16T05:06:42;13.70;99.90
16871;DHT22;8552;48.120;-1.456;2022-10-16T05:09:08;13.70;99.90
16871;DHT22;8552;48.120;-1.456;2022-10-16T05:11:34;13.70;99.90
16871;DHT22;8552;48.120;-1.456;2022-10-16T05:14:00;13.70;99.90
16871;DHT22;8552;48.120;-1.456;2022-10-16T05:16:26;13.70;99.90
16871;DHT22;8552;48.120;-1.456;2022-10-16T05:18:52;13.70;99.90
16871;DHT22;8552;48.120;-1.456;2022-10-16T05:21:18;13.70;99.90
16871;DHT22;8552;48.120;-1.456;2022-10-16T05:23:44;13.70;99.90
16871;DHT22;8552;48.120;-1.456;2022-10-16T05:26:10;13.70;99.90
16871;DHT22;8552;48.120;-1.456;2022-10-16T05:28:36;13.70;99.90
16871;DHT22;8552;48.120;-1.456;2022-10-16T05:31:09;13.70;99.90
16871;DHT22;8552;48.120;-1.456;2022-10-16T05:33:35;13.80;99.90
16871;DHT22;8552;48.120;-1.456;2022-10-16T05:36:03;13.80;99.90
16871;DHT22;8552;48.120;-1.456;2022-10-16T05:38:29;13.80;99.90
16871;DHT22;8552;48.120;-1.456;2022-10-16T05:40:54;13.80;99.90
16871;DHT22;8552;48.120;-1.456;2022-10-16T05:43:21;13.80;99.90
16871;DHT22;8552;48.120;-1.456;2022-10-16T05:45:55;13.80;99.90
16871;DHT22;8552;48.120;-1.456;2022-10-16T05:48:21;13.80;99.90
16871;DHT22;8552;48.120;-1.456;2022-10-16T05:50:46;13.80;99.90
16871;DHT22;8552;48.120;-1.456;2022-10-16T05:53:12;13.80;99.90
16871;DHT22;8552;48.120;-1.456;2022-10-16T05:55:37;13.90;99.90
16871;DHT22;8552;48.120;-1.456;2022-10-16T05:58:03;13.80;99.90
16871;DHT22;8552;48.120;-1.456;2022-10-16T06:00:29;13.90;99.90
16871;DHT22;8552;48.120;-1.456;2022-10-16T06:02:54;13.90;99.90
16871;DHT22;8552;48.120;-1.456;2022-10-16T06:05:20;13.90;99.90
16871;DHT22;8552;48.120;-1.456;2022-10-16T06:07:46;13.90;99.90
16871;DHT22;8552;48.120;-1.456;2022-10-16T06:10:11;13.90;99.90
16871;DHT22;8552;48.120;-1.456;2022-10-16T06:12:37;13.90;99.90
16871;DHT22;8552;48.120;-1.456;2022-10-16T06:15:03;13.90;99.90
16871;DHT22;8552;48.120;-1.456;2022-10-16T06:17:29;13.90;99.90
16871;DHT22;8552;48.120;-1.456;2022-10-16T06:19:54;13.90;99.90
16871;DHT22;8552;48.120;-1.456;2022-10-16T06:22:20;13.90;99.90
16871;DHT22;8552;48.120;-1.456;2022-10-16T06:24:46;14.00;99.90
16871;DHT22;8552;48.120;-1.456;2022-10-16T06:27:12;13.90;99.90
16871;DHT22;8552;48.120;-1.456;2022-10-16T06:29:38;14.00;99.90
16871;DHT22;8552;48.120;-1.456;2022-10-16T06:32:04;14.00;99.90
16871;DHT22;8552;48.120;-1.456;2022-10-16T06:34:30;14.00;99.90
16871;DHT22;8552;48.120;-1.456;2022-10-16T06:36:55;14.00;99.90
16871;DHT22;8552;48.120;-1.456;2022-10-16T06:39:21;14.00;99.90
16871;DHT22;8552;48.120;-1.456;2022-10-16T06:41:46;14.00;99.90
16871;DHT22;8552;48.120;-1.456;2022-10-16T06:44:12;14.00;99.90
16871;DHT22;8552;48.120;-1.456;2022-10-16T06:46:38;14.00;99.90
16871;DHT22;8552;48.120;-1.456;2022-10-16T06:49:03;14.00;99.90
16871;DHT22;8552;48.120;-1.456;2022-10-16T06:51:29;14.10;99.90
16871;DHT22;8552;48.120;-1.456;2022-10-16T06:53:57;14.10;99.90
16871;DHT22;8552;48.120;-1.456;2022-10-16T06:56:25;14.10;99.90
16871;DHT22;8552;48.120;-1.456;2022-10-16T06:58:51;14.10;99.90
16871;DHT22;8552;48.120;-1.456;2022-10-16T07:01:20;14.10;99.90
16871;DHT22;8552;48.120;-1.456;2022-10-16T07:03:46;14.10;99.90
16871;DHT22;8552;48.120;-1.456;2022-10-16T07:06:15;14.10;99.90
16871;DHT22;8552;48.120;-1.456;2022-10-16T07:08:43;14.10;99.90
16871;DHT22;8552;48.120;-1.456;2022-10-16T07:11:13;14.20;99.90
16871;DHT22;8552;48.120;-1.456;2022-10-16T07:13:41;14.20;99.90
16871;DHT22;8552;48.120;-1.456;2022-10-16T07:16:10;14.20;99.90
16871;DHT22;8552;48.120;-1.456;2022-10-16T07:18:36;14.20;99.90
16871;DHT22;8552;48.120;-1.456;2022-10-16T07:21:06;14.20;99.90
16871;DHT22;8552;48.120;-1.456;2022-10-16T07:23:32;14.30;99.90
16871;DHT22;8552;48.120;-1.456;2022-10-16T07:25:57;14.40;99.90
16871;DHT22;8552;48.120;-1.456;2022-10-16T07:28:23;14.40;99.90
16871;DHT22;8552;48.120;-1.456;2022-10-16T07:30:49;14.50;99.90
16871;DHT22;8552;48.120;-1.456;2022-10-16T07:33:14;14.60;99.90
16871;DHT22;8552;48.120;-1.456;2022-10-16T07:35:51;14.60;99.90
16871;DHT22;8552;48.120;-1.456;2022-10-16T07:38:17;14.60;99.90
16871;DHT22;8552;48.120;-1.456;2022-10-16T07:40:43;14.60;99.90
16871;DHT22;8552;48.120;-1.456;2022-10-16T07:43:09;14.60;99.90
16871;DHT22;8552;48.120;-1.456;2022-10-16T07:45:35;14.60;99.90
16871;DHT22;8552;48.120;-1.456;2022-10-16T07:48:01;14.60;99.90
16871;DHT22;8552;48.120;-1.456;2022-10-16T07:50:26;14.70;99.90
16871;DHT22;8552;48.120;-1.456;2022-10-16T07:52:52;14.80;99.90
16871;DHT22;8552;48.120;-1.456;2022-10-16T07:55:18;14.80;99.90
16871;DHT22;8552;48.120;-1.456;2022-10-16T07:57:43;14.90;99.90
16871;DHT22;8552;48.120;-1.456;2022-10-16T08:00:09;15.00;99.90
16871;DHT22;8552;48.120;-1.456;2022-10-16T08:02:42;15.10;99.90
16871;DHT22;8552;48.120;-1.456;2022-10-16T08:05:08;15.20;99.90
16871;DHT22;8552;48.120;-1.456;2022-10-16T08:07:34;15.20;99.90
16871;DHT22;8552;48.120;-1.456;2022-10-16T08:09:59;15.30;99.90
16871;DHT22;8552;48.120;-1.456;2022-10-16T08:12:26;15.30;99.90
16871;DHT22;8552;48.120;-1.456;2022-10-16T08:14:51;15.40;99.90
16871;DHT22;8552;48.120;-1.456;2022-10-16T08:17:17;15.40;99.90
16871;DHT22;8552;48.120;-1.456;2022-10-16T08:19:46;15.40;99.90
16871;DHT22;8552;48.120;-1.456;2022-10-16T08:22:15;15.40;99.90
16871;DHT22;8552;48.120;-1.456;2022-10-16T08:24:41;15.40;99.90
16871;DHT22;8552;48.120;-1.456;2022-10-16T08:27:07;15.40;99.90
16871;DHT22;8552;48.120;-1.456;2022-10-16T08:29:34;15.40;99.90
16871;DHT22;8552;48.120;-1.456;2022-10-16T08:32:00;15.40;99.90
16871;DHT22;8552;48.120;-1.456;2022-10-16T08:34:25;15.60;99.90
16871;DHT22;8552;48.120;-1.456;2022-10-16T08:36:53;15.60;99.90
16871;DHT22;8552;48.120;-1.456;2022-10-16T08:39:19;15.80;99.90
16871;DHT22;8552;48.120;-1.456;2022-10-16T08:42:18;15.90;99.90
16871;DHT22;8552;48.120;-1.456;2022-10-16T08:50:10;16.30;99.90
16871;DHT22;8552;48.120;-1.456;2022-10-16T08:52:40;16.40;99.90
16871;DHT22;8552;48.120;-1.456;2022-10-16T08:55:29;16.50;99.90
16871;DHT22;8552;48.120;-1.456;2022-10-16T08:57:59;16.60;99.90
16871;DHT22;8552;48.120;-1.456;2022-10-16T09:00:28;16.50;99.90
16871;DHT22;8552;48.120;-1.456;2022-10-16T09:14:49;16.80;99.90
16871;DHT22;8552;48.120;-1.456;2022-10-16T09:22:35;16.70;99.90
16871;DHT22;8552;48.120;-1.456;2022-10-16T09:25:13;16.70;99.90
16871;DHT22;8552;48.120;-1.456;2022-10-16T09:27:39;16.90;99.90
16871;DHT22;8552;48.120;-1.456;2022-10-16T09:30:19;17.00;99.90
16871;DHT22;8552;48.120;-1.456;2022-10-16T09:32:48;16.90;99.90
16871;DHT22;8552;48.120;-1.456;2022-10-16T09:35:20;17.00;99.90
16871;DHT22;8552;48.120;-1.456;2022-10-16T09:37:51;17.00;99.90
16871;DHT22;8552;48.120;-1.456;2022-10-16T09:40:28;17.00;99.90
16871;DHT22;8552;48.120;-1.456;2022-10-16T09:46:07;17.00;99.90
16871;DHT22;8552;48.120;-1.456;2022-10-16T09:48:42;17.00;99.90
16871;DHT22;8552;48.120;-1.456;2022-10-16T09:51:38;16.90;99.90
16871;DHT22;8552;48.120;-1.456;2022-10-16T09:56:36;16.90;99.90
16871;DHT22;8552;48.120;-1.456;2022-10-16T09:59:18;16.90;99.90
16871;DHT22;8552;48.120;-1.456;2022-10-16T10:04:15;17.00;99.90
16871;DHT22;8552;48.120;-1.456;2022-10-16T10:06:52;17.10;99.90
16871;DHT22;8552;48.120;-1.456;2022-10-16T10:09:39;17.20;99.90
16871;DHT22;8552;48.120;-1.456;2022-10-16T10:12:15;17.30;99.90
16871;DHT22;8552;48.120;-1.456;2022-10-16T10:14:52;17.20;99.90
16871;DHT22;8552;48.120;-1.456;2022-10-16T10:17:27;17.30;99.90
16871;DHT22;8552;48.120;-1.456;2022-10-16T10:19:55;17.30;99.90
16871;DHT22;8552;48.120;-1.456;2022-10-16T10:22:29;17.30;99.90
16871;DHT22;8552;48.120;-1.456;2022-10-16T10:36:54;17.20;99.90
16871;DHT22;8552;48.120;-1.456;2022-10-16T10:39:46;17.10;99.90
16871;DHT22;8552;48.120;-1.456;2022-10-16T10:42:19;16.90;99.90
16871;DHT22;8552;48.120;-1.456;2022-10-16T10:45:12;16.80;99.90
16871;DHT22;8552;48.120;-1.456;2022-10-16T10:56:39;16.70;99.90
16871;DHT22;8552;48.120;-1.456;2022-10-16T10:59:50;16.70;99.90
16871;DHT22;8552;48.120;-1.456;2022-10-16T11:05:44;16.50;99.90
16871;DHT22;8552;48.120;-1.456;2022-10-16T11:13:34;16.50;99.90
16871;DHT22;8552;48.120;-1.456;2022-10-16T11:16:35;16.40;99.90
16871;DHT22;8552;48.120;-1.456;2022-10-16T11:20:24;16.40;99.90
16871;DHT22;8552;48.120;-1.456;2022-10-16T11:22:45;16.20;99.90
16871;DHT22;8552;48.120;-1.456;2022-10-16T11:30:29;16.10;99.90
16871;DHT22;8552;48.120;-1.456;2022-10-16T11:36:35;16.00;99.90
16871;DHT22;8552;48.120;-1.456;2022-10-16T11:38:37;16.00;99.90
16871;DHT22;8552;48.120;-1.456;2022-10-16T11:47:06;15.90;99.90
16871;DHT22;8552;48.120;-1.456;2022-10-16T11:49:33;15.90;99.90
16871;DHT22;8552;48.120;-1.456;2022-10-16T11:52:22;15.90;99.90
16871;DHT22;8552;48.120;-1.456;2022-10-16T11:57:34;15.90;99.90
16871;DHT22;8552;48.120;-1.456;2022-10-16T12:00:24;15.90;99.90
16871;DHT22;8552;48.120;-1.456;2022-10-16T12:05:23;15.80;99.90
16871;DHT22;8552;48.120;-1.456;2022-10-16T12:08:10;15.80;99.90
16871;DHT22;8552;48.120;-1.456;2022-10-16T12:10:36;15.70;99.90
16871;DHT22;8552;48.120;-1.456;2022-10-16T12:13:04;15.70;99.90
16871;DHT22;8552;48.120;-1.456;2022-10-16T12:15:33;15.80;99.90
16871;DHT22;8552;48.120;-1.456;2022-10-16T12:17:59;15.80;99.90
16871;DHT22;8552;48.120;-1.456;2022-10-16T12:20:26;15.80;99.90
16871;DHT22;8552;48.120;-1.456;2022-10-16T12:23:02;15.80;99.90
16871;DHT22;8552;48.120;-1.456;2022-10-16T12:25:34;15.90;99.90
16871;DHT22;8552;48.120;-1.456;2022-10-16T12:28:03;16.00;99.90
16871;DHT22;8552;48.120;-1.456;2022-10-16T12:30:31;16.00;99.90
16871;DHT22;8552;48.120;-1.456;2022-10-16T12:35:44;16.20;99.90
16871;DHT22;8552;48.120;-1.456;2022-10-16T12:38:25;16.20;99.90
16871;DHT22;8552;48.120;-1.456;2022-10-16T12:41:01;16.20;99.90
16871;DHT22;8552;48.120;-1.456;2022-10-16T12:43:36;16.20;99.90
16871;DHT22;8552;48.120;-1.456;2022-10-16T12:48:37;16.40;99.90
16871;DHT22;8552;48.120;-1.456;2022-10-16T12:54:40;16.60;99.90
16871;DHT22;8552;48.120;-1.456;2022-10-16T13:08:25;17.20;99.90
16871;DHT22;8552;48.120;-1.456;2022-10-16T13:16:55;18.00;99.90
16871;DHT22;8552;48.120;-1.456;2022-10-16T13:19:20;18.20;99.90
16871;DHT22;8552;48.120;-1.456;2022-10-16T13:22:04;18.30;99.90
16871;DHT22;8552;48.120;-1.456;2022-10-16T13:30:22;18.60;99.90
16871;DHT22;8552;48.120;-1.456;2022-10-16T13:32:50;18.80;99.90
16871;DHT22;8552;48.120;-1.456;2022-10-16T13:35:26;18.90;99.90
16871;DHT22;8552;48.120;-1.456;2022-10-16T13:38:04;18.90;99.90
16871;DHT22;8552;48.120;-1.456;2022-10-16T13:40:29;19.00;99.90
16871;DHT22;8552;48.120;-1.456;2022-10-16T13:42:55;19.00;99.90
16871;DHT22;8552;48.120;-1.456;2022-10-16T13:45:24;18.90;99.90
16871;DHT22;8552;48.120;-1.456;2022-10-16T13:48:04;18.90;99.90
16871;DHT22;8552;48.120;-1.456;2022-10-16T13:50:30;19.00;99.90
16871;DHT22;8552;48.120;-1.456;2022-10-16T13:53:06;19.10;99.90
16871;DHT22;8552;48.120;-1.456;2022-10-16T13:55:32;19.20;99.90
16871;DHT22;8552;48.120;-1.456;2022-10-16T13:58:07;19.30;99.90
16871;DHT22;8552;48.120;-1.456;2022-10-16T14:00:33;19.50;99.90
16871;DHT22;8552;48.120;-1.456;2022-10-16T14:03:03;19.60;99.90
16871;DHT22;8552;48.120;-1.456;2022-10-16T14:05:29;19.70;99.90
16871;DHT22;8552;48.120;-1.456;2022-10-16T14:07:56;19.70;99.90
16871;DHT22;8552;48.120;-1.456;2022-10-16T14:10:31;19.70;99.90
16871;DHT22;8552;48.120;-1.456;2022-10-16T14:13:05;19.60;99.90
16871;DHT22;8552;48.120;-1.456;2022-10-16T14:15:34;19.60;99.90
16871;DHT22;8552;48.120;-1.456;2022-10-16T14:18:01;19.70;99.90
16871;DHT22;8552;48.120;-1.456;2022-10-16T14:20:30;19.90;99.90
16871;DHT22;8552;48.120;-1.456;2022-10-16T14:23:16;20.10;99.90
16871;DHT22;8552;48.120;-1.456;2022-10-16T14:25:44;20.00;99.90
16871;DHT22;8552;48.120;-1.456;2022-10-16T14:28:22;19.80;99.90
16871;DHT22;8552;48.120;-1.456;2022-10-16T14:31:01;19.90;99.90
16871;DHT22;8552;48.120;-1.456;2022-10-16T14:36:10;20.00;99.90
16871;DHT22;8552;48.120;-1.456;2022-10-16T14:38:38;20.00;99.90
16871;DHT22;8552;48.120;-1.456;2022-10-16T14:41:05;20.00;99.90
16871;DHT22;8552;48.120;-1.456;2022-10-16T14:43:40;20.00;99.90
16871;DHT22;8552;48.120;-1.456;2022-10-16T14:46:13;20.10;99.90
16871;DHT22;8552;48.120;-1.456;2022-10-16T14:48:43;20.30;99.90
16871;DHT22;8552;48.120;-1.456;2022-10-16T14:51:18;20.30;99.90
16871;DHT22;8552;48.120;-1.456;2022-10-16T14:53:44;20.20;99.90
16871;DHT22;8552;48.120;-1.456;2022-10-16T14:56:19;20.30;99.90
16871;DHT22;8552;48.120;-1.456;2022-10-16T14:58:45;20.20;99.90
16871;DHT22;8552;48.120;-1.456;2022-10-16T15:01:11;20.20;99.90
16871;DHT22;8552;48.120;-1.456;2022-10-16T15:03:38;20.10;99.90
16871;DHT22;8552;48.120;-1.456;2022-10-16T15:06:13;20.10;99.90
16871;DHT22;8552;48.120;-1.456;2022-10-16T15:08:39;20.20;99.90
16871;DHT22;8552;48.120;-1.456;2022-10-16T15:11:10;20.10;99.90
16871;DHT22;8552;48.120;-1.456;2022-10-16T15:13:37;20.10;99.90
16871;DHT22;8552;48.120;-1.456;2022-10-16T15:16:03;20.20;99.90
16871;DHT22;8552;48.120;-1.456;2022-10-16T15:18:28;20.00;99.90
16871;DHT22;8552;48.120;-1.456;2022-10-16T15:20:54;19.90;99.90
16871;DHT22;8552;48.120;-1.456;2022-10-16T15:23:22;20.00;99.90
16871;DHT22;8552;48.120;-1.456;2022-10-16T15:25:52;20.10;99.90
16871;DHT22;8552;48.120;-1.456;2022-10-16T15:28:20;20.00;99.90
16871;DHT22;8552;48.120;-1.456;2022-10-16T15:30:46;19.90;99.90
16871;DHT22;8552;48.120;-1.456;2022-10-16T15:33:27;19.90;99.90
16871;DHT22;8552;48.120;-1.456;2022-10-16T15:35:56;19.90;99.90
16871;DHT22;8552;48.120;-1.456;2022-10-16T15:38:22;19.90;99.90
16871;DHT22;8552;48.120;-1.456;2022-10-16T15:40:48;20.00;99.90
16871;DHT22;8552;48.120;-1.456;2022-10-16T15:43:15;20.00;99.90
16871;DHT22;8552;48.120;-1.456;2022-10-16T15:45:40;20.00;99.90
16871;DHT22;8552;48.120;-1.456;2022-10-16T15:48:08;20.00;99.90
16871;DHT22;8552;48.120;-1.456;2022-10-16T15:50:37;20.10;99.90
16871;DHT22;8552;48.120;-1.456;2022-10-16T15:53:03;20.00;99.90
16871;DHT22;8552;48.120;-1.456;2022-10-16T15:55:29;20.00;99.90
16871;DHT22;8552;48.120;-1.456;2022-10-16T15:57:55;20.00;99.90
16871;DHT22;8552;48.120;-1.456;2022-10-16T16:00:20;19.90;99.90
16871;DHT22;8552;48.120;-1.456;2022-10-16T16:02:54;19.90;99.90
16871;DHT22;8552;48.120;-1.456;2022-10-16T16:05:27;20.00;99.90
16871;DHT22;8552;48.120;-1.456;2022-10-16T16:07:54;20.00;99.90
16871;DHT22;8552;48.120;-1.456;2022-10-16T16:10:20;20.10;99.90
16871;DHT22;8552;48.120;-1.456;2022-10-16T16:12:49;20.10;99.90
16871;DHT22;8552;48.120;-1.456;2022-10-16T16:15:23;20.00;99.90
16871;DHT22;8552;48.120;-1.456;2022-10-16T16:17:55;20.00;99.90
16871;DHT22;8552;48.120;-1.456;2022-10-16T16:20:28;19.80;99.90
16871;DHT22;8552;48.120;-1.456;2022-10-16T16:23:09;19.80;99.90
16871;DHT22;8552;48.120;-1.456;2022-10-16T16:25:38;19.80;99.90
16871;DHT22;8552;48.120;-1.456;2022-10-16T16:28:06;19.70;99.90
16871;DHT22;8552;48.120;-1.456;2022-10-16T16:30:33;19.70;99.90
16871;DHT22;8552;48.120;-1.456;2022-10-16T16:32:58;19.60;99.90
16871;DHT22;8552;48.120;-1.456;2022-10-16T16:35:24;19.60;99.90
16871;DHT22;8552;48.120;-1.456;2022-10-16T16:37:50;19.50;99.90
16871;DHT22;8552;48.120;-1.456;2022-10-16T16:40:15;19.40;99.90
16871;DHT22;8552;48.120;-1.456;2022-10-16T16:42:41;19.40;99.90
16871;DHT22;8552;48.120;-1.456;2022-10-16T16:45:07;19.30;99.90
16871;DHT22;8552;48.120;-1.456;2022-10-16T16:47:33;19.30;99.90
16871;DHT22;8552;48.120;-1.456;2022-10-16T16:49:59;19.20;99.90
16871;DHT22;8552;48.120;-1.456;2022-10-16T16:52:25;19.20;99.90
16871;DHT22;8552;48.120;-1.456;2022-10-16T16:54:50;19.10;99.90
16871;DHT22;8552;48.120;-1.456;2022-10-16T16:57:19;19.00;99.90
16871;DHT22;8552;48.120;-1.456;2022-10-16T16:59:45;19.00;99.90
16871;DHT22;8552;48.120;-1.456;2022-10-16T17:02:11;18.90;99.90
16871;DHT22;8552;48.120;-1.456;2022-10-16T17:04:37;18.80;99.90
16871;DHT22;8552;48.120;-1.456;2022-10-16T17:07:02;18.70;99.90
16871;DHT22;8552;48.120;-1.456;2022-10-16T17:09:28;18.70;99.90
16871;DHT22;8552;48.120;-1.456;2022-10-16T17:11:54;18.60;99.90
16871;DHT22;8552;48.120;-1.456;2022-10-16T17:14:20;18.60;99.90
16871;DHT22;8552;48.120;-1.456;2022-10-16T17:16:45;18.50;99.90
16871;DHT22;8552;48.120;-1.456;2022-10-16T17:19:18;18.40;99.90
16871;DHT22;8552;48.120;-1.456;2022-10-16T17:21:44;18.40;99.90
16871;DHT22;8552;48.120;-1.456;2022-10-16T17:24:10;18.30;99.90
16871;DHT22;8552;48.120;-1.456;2022-10-16T17:26:37;18.20;99.90
16871;DHT22;8552;48.120;-1.456;2022-10-16T17:29:04;18.10;99.90
16871;DHT22;8552;48.120;-1.456;2022-10-16T17:31:33;18.10;99.90
16871;DHT22;8552;48.120;-1.456;2022-10-16T17:33:59;18.00;99.90
16871;DHT22;8552;48.120;-1.456;2022-10-16T17:36:26;18.00;99.90
16871;DHT22;8552;48.120;-1.456;2022-10-16T17:39:00;17.90;99.90
16871;DHT22;8552;48.120;-1.456;2022-10-16T17:41:29;17.90;99.90
16871;DHT22;8552;48.120;-1.456;2022-10-16T17:43:54;17.80;99.90